Time;durP1;ratioP1;P1;durP2;ratioP2;P2;SDS_P1;SDS_P2;PMS_P1;PMS_P2;Temp;Humidity;BMP_temperature;BMP_pressure;BME280_temperature;BME280_humidity;BME280_pressure;Samples;Min_cycle;Max_cycle;Signal;HPM_P1;HPM_P2
2022/08/20 04:02:33;;;;;;;;;;;;;;;21.61;61.05;98843.31;2599960;47;20442;-68
2022/08/20 04:05:03;;;;;;;;;;;;;;;21.48;60.97;98839.22;2617928;47;19946;-68
2022/08/20 04:07:32;;;;;;;;;;;;;;;21.36;61.62;98844.81;2618749;54;20476;-68
2022/08/20 04:10:05;;;;;;;;;;;;;;;21.29;61.64;98844.19;2618727;54;20703;-68
2022/08/20 04:12:40;;;;;;;;;;;;;;;21.24;61.80;98844.19;2618357;46;19947;-68
2022/08/20 04:15:23;;;;;;;;;;;;;;;21.17;62.38;98844.41;2618051;54;20434;-67
2022/08/20 04:17:55;;;;;;;;;;;;;;;21.16;62.38;98845.50;2617570;50;19946;-67
2022/08/20 04:20:26;;;;;;;;;;;;;;;21.21;62.00;98850.88;2617937;54;19947;-68
2022/08/20 04:22:56;;;;;;;;;;;;;;;21.23;62.44;98848.75;2618295;54;19957;-69
2022/08/20 04:25:28;;;;;;;;;;;;;;;21.22;62.31;98852.50;2618344;54;19938;-68
2022/08/20 04:28:05;;;;;;;;;;;;;;;21.24;62.10;98854.94;2618468;54;19974;-68
2022/08/20 04:30:35;;;;;;;;;;;;;;;21.18;62.65;98854.09;2618202;54;19946;-70
2022/08/20 04:33:06;;;;;;;;;;;;;;;21.16;62.59;98863.50;2618346;39;20318;-68
2022/08/20 04:35:36;;;;;;;;;;;;;;;21.06;62.94;98860.72;2618629;39;20319;-68
2022/08/20 04:38:07;;;;;;;;;;;;;;;21.07;62.71;98863.19;2617448;54;19950;-69
2022/08/20 04:43:19;;;;;;;;;;;;;;;21.09;63.25;98869.09;2618360;54;19950;-68
2022/08/20 04:45:50;;;;;;;;;;;;;;;21.06;63.28;98877.66;2617712;47;20461;-69
2022/08/20 04:48:24;;;;;;;;;;;;;;;21.03;63.20;98879.00;2618208;54;19953;-67
2022/08/20 04:50:54;;;;;;;;;;;;;;;21.00;63.60;98876.03;2618343;54;19954;-67
2022/08/20 04:53:28;;;;;;;;;;;;;;;21.05;63.57;98873.38;2619032;54;20022;-69
2022/08/20 04:56:00;;;;;;;;;;;;;;;20.99;63.86;98877.09;2618427;54;19946;-68
2022/08/20 04:58:32;;;;;;;;;;;;;;;20.94;63.73;98874.34;2618255;54;19946;-69
2022/08/20 05:01:03;;;;;;;;;;;;;;;20.91;64.31;98878.38;2618289;54;20647;-68
2022/08/20 05:03:37;;;;;;;;;;;;;;;20.86;64.15;98877.53;2618330;54;19946;-68
2022/08/20 05:06:07;;;;;;;;;;;;;;;20.87;64.09;98877.28;2618136;54;19954;-67
2022/08/20 05:08:37;;;;;;;;;;;;;;;20.94;64.42;98879.72;2617666;47;19954;-68
2022/08/20 05:11:08;;;;;;;;;;;;;;;20.98;64.04;98878.97;2617762;54;19954;-69
2022/08/20 05:13:57;;;;;;;;;;;;;;;21.03;64.02;98870.94;2618004;54;20026;-68
2022/08/20 05:16:26;;;;;;;;;;;;;;;20.98;64.29;98875.47;2617901;54;19954;-69
2022/08/20 05:18:58;;;;;;;;;;;;;;;20.95;64.75;98886.75;2617496;52;19938;-69
2022/08/20 05:21:28;;;;;;;;;;;;;;;20.92;64.43;98887.25;2618142;54;20431;-67
2022/08/20 05:23:57;;;;;;;;;;;;;;;20.88;65.08;98888.84;2618246;54;20448;-69
2022/08/20 05:26:26;;;;;;;;;;;;;;;20.85;65.34;98897.41;2618306;54;19958;-68
2022/08/20 05:28:56;;;;;;;;;;;;;;;20.74;65.72;98891.97;2618323;54;19939;-68
2022/08/20 05:31:27;;;;;;;;;;;;;;;20.72;66.02;98894.09;2618866;39;20350;-68
2022/08/20 05:34:08;;;;;;;;;;;;;;;20.57;66.92;98893.94;2619207;31;20433;-67
2022/08/20 05:36:39;;;;;;;;;;;;;;;20.53;67.49;98904.41;2619022;54;19951;-69
2022/08/20 05:39:09;;;;;;;;;;;;;;;20.62;67.53;98898.59;2619428;54;19957;-68
2022/08/20 05:41:39;;;;;;;;;;;;;;;20.72;67.61;98899.47;2619309;54;19938;-67
2022/08/20 05:44:12;;;;;;;;;;;;;;;20.63;67.86;98901.00;2619920;54;19938;-68
2022/08/20 05:46:42;;;;;;;;;;;;;;;20.51;68.46;98911.09;2619781;54;20446;-68
2022/08/20 05:49:18;;;;;;;;;;;;;;;20.40;69.47;98910.16;2619586;54;20465;-68
2022/08/20 05:51:47;;;;;;;;;;;;;;;20.38;69.45;98914.97;2619281;54;19953;-68
2022/08/20 05:54:17;;;;;;;;;;;;;;;20.37;69.75;98918.72;2619161;54;19962;-70
2022/08/20 05:56:46;;;;;;;;;;;;;;;20.28;70.07;98918.34;2618470;54;19946;-69
2022/08/20 05:59:16;;;;;;;;;;;;;;;20.22;70.61;98913.19;2618506;54;19954;-69
2022/08/20 06:01:52;;;;;;;;;;;;;;;20.16;71.46;98924.94;2617880;54;20430;-68
2022/08/20 06:04:26;;;;;;;;;;;;;;;20.16;71.54;98922.25;2617867;39;20358;-67
2022/08/20 06:06:56;;;;;;;;;;;;;;;20.22;71.81;98922.06;2617714;54;20472;-70
2022/08/20 06:09:26;;;;;;;;;;;;;;;20.27;71.51;98926.66;2617804;54;19947;-68
2022/08/20 06:12:01;;;;;;;;;;;;;;;20.21;72.04;98923.13;2617858;54;19969;-69
2022/08/20 06:14:31;;;;;;;;;;;;;;;20.09;71.83;98925.13;2617662;39;20357;-68
2022/08/20 06:17:05;;;;;;;;;;;;;;;20.05;72.41;98921.34;2617569;54;19947;-69
2022/08/20 06:19:38;;;;;;;;;;;;;;;20.19;72.34;98933.28;2617315;54;19974;-67
2022/08/20 06:22:12;;;;;;;;;;;;;;;20.29;72.00;98933.41;2617833;54;19946;-68
2022/08/20 06:24:49;;;;;;;;;;;;;;;20.26;72.12;98941.97;2617801;54;20037;-69
2022/08/20 06:27:18;;;;;;;;;;;;;;;20.23;72.26;98937.09;2617723;54;19977;-68
2022/08/20 06:29:48;;;;;;;;;;;;;;;20.25;72.36;98929.63;2617817;54;20460;-67
2022/08/20 06:32:18;;;;;;;;;;;;;;;20.23;72.67;98941.66;2617704;54;19946;-68
2022/08/20 06:35:03;;;;;;;;;;;;;;;20.20;73.09;98940.28;2617323;54;19973;-68
2022/08/20 06:37:35;;;;;;;;;;;;;;;20.17;72.85;98942.69;2617256;54;19947;-68
2022/08/20 06:40:06;;;;;;;;;;;;;;;20.16;73.01;98941.84;2617344;53;19965;-69
2022/08/20 06:42:35;;;;;;;;;;;;;;;20.26;72.64;98944.66;2617641;54;19957;-69
2022/08/20 06:45:06;;;;;;;;;;;;;;;20.33;72.82;98947.16;2617721;54;20522;-68
2022/08/20 06:47:35;;;;;;;;;;;;;;;20.26;72.61;98941.97;2617535;54;19951;-68
2022/08/20 06:50:08;;;;;;;;;;;;;;;20.22;73.22;98953.47;2617156;54;19939;-68
2022/08/20 06:52:38;;;;;;;;;;;;;;;20.25;73.21;98947.59;2617902;54;19954;-68
2022/08/20 06:55:22;;;;;;;;;;;;;;;20.42;72.63;98950.19;2617773;54;19943;-68
2022/08/20 06:57:57;;;;;;;;;;;;;;;20.48;72.36;98954.53;2617662;54;19938;-68
2022/08/20 07:00:27;;;;;;;;;;;;;;;20.51;72.68;98952.19;2617961;54;20459;-68
2022/08/20 07:02:59;;;;;;;;;;;;;;;20.75;72.41;98952.69;2618687;54;19938;-69
2022/08/20 07:05:32;;;;;;;;;;;;;;;20.97;71.63;98949.91;2618570;54;19938;-68
2022/08/20 07:08:01;;;;;;;;;;;;;;;21.21;71.17;98947.66;2618621;54;19939;-69
2022/08/20 07:10:31;;;;;;;;;;;;;;;21.34;70.20;98953.69;2618417;54;19938;-69
2022/08/20 07:13:01;;;;;;;;;;;;;;;21.20;70.10;98947.94;2618315;39;20342;-68
2022/08/20 07:15:31;;;;;;;;;;;;;;;21.33;70.05;98947.50;2618800;54;19947;-68
2022/08/20 07:18:02;;;;;;;;;;;;;;;21.44;69.98;98959.16;2618410;54;19953;-68
2022/08/20 07:20:37;;;;;;;;;;;;;;;21.48;69.50;98957.56;2620225;54;19954;-68
2022/08/20 07:23:07;;;;;;;;;;;;;;;21.57;69.10;98957.88;2619596;54;19954;-68
2022/08/20 07:25:36;;;;;;;;;;;;;;;21.58;69.00;98960.28;2619475;54;20450;-68
2022/08/20 07:28:07;;;;;;;;;;;;;;;21.55;69.18;98957.31;2618085;54;19965;-69
2022/08/20 07:33:25;;;;;;;;;;;;;;;21.61;68.90;98949.03;2619147;54;19946;-69
2022/08/20 07:36:00;;;;;;;;;;;;;;;21.79;68.71;98953.13;2617438;47;19946;-69
2022/08/20 07:38:30;;;;;;;;;;;;;;;21.83;68.21;98959.59;2617651;54;19942;-69
2022/08/20 07:41:01;;;;;;;;;;;;;;;21.84;67.38;98958.56;2617715;54;19942;-69
2022/08/20 07:43:30;;;;;;;;;;;;;;;21.94;67.57;98960.47;2617634;54;19938;-68
2022/08/20 07:46:06;;;;;;;;;;;;;;;22.05;67.53;98964.84;2617666;54;20445;-69
2022/08/20 07:48:38;;;;;;;;;;;;;;;21.98;66.87;98966.94;2617606;54;19953;-69
2022/08/20 07:51:11;;;;;;;;;;;;;;;21.99;66.29;98965.88;2617787;54;19939;-69
2022/08/20 07:53:41;;;;;;;;;;;;;;;21.92;65.79;98973.38;2617853;54;20418;-69
2022/08/20 07:56:12;;;;;;;;;;;;;;;21.93;66.02;98973.13;2617565;54;19939;-67
2022/08/20 07:58:46;;;;;;;;;;;;;;;21.98;66.05;98970.44;2617460;54;19946;-68
2022/08/20 08:01:15;;;;;;;;;;;;;;;22.13;65.94;98966.25;2618118;39;20345;-69
2022/08/20 08:03:45;;;;;;;;;;;;;;;22.25;65.36;98966.81;2617535;54;19938;-69
2022/08/20 08:06:22;;;;;;;;;;;;;;;22.50;65.02;98963.38;2617980;54;19938;-67
2022/08/20 08:08:58;;;;;;;;;;;;;;;22.62;64.48;98963.94;2622635;54;20468;-68
2022/08/20 08:11:28;;;;;;;;;;;;;;;22.76;63.99;98964.22;2618571;54;20446;-69
2022/08/20 08:13:58;;;;;;;;;;;;;;;22.66;62.75;98970.41;2617621;54;19954;-67
2022/08/20 08:16:27;;;;;;;;;;;;;;;22.75;62.62;98965.31;2617582;54;20449;-67
2022/08/20 08:19:00;;;;;;;;;;;;;;;22.80;62.35;98964.50;2616967;51;19939;-67
2022/08/20 08:21:33;;;;;;;;;;;;;;;22.72;62.13;98961.25;2617560;54;20462;-69
2022/08/20 08:24:02;;;;;;;;;;;;;;;22.76;61.66;98966.91;2616595;54;19947;-68
2022/08/20 08:26:31;;;;;;;;;;;;;;;22.77;61.79;98960.44;2617439;54;20427;-67
2022/08/20 08:29:01;;;;;;;;;;;;;;;22.80;61.22;98962.59;2617714;54;19946;-67
2022/08/20 08:31:30;;;;;;;;;;;;;;;22.97;60.74;98968.56;2616982;54;19946;-68
2022/08/20 08:34:00;;;;;;;;;;;;;;;23.12;60.02;98964.25;2617505;54;19939;-69
2022/08/20 08:36:29;;;;;;;;;;;;;;;23.04;58.48;98967.50;2617309;54;20447;-69
2022/08/20 08:39:01;;;;;;;;;;;;;;;23.07;58.26;98969.66;2618305;54;19947;-72
2022/08/20 08:41:33;;;;;;;;;;;;;;;23.09;57.39;98964.78;2618472;54;19954;-72
2022/08/20 08:44:05;;;;;;;;;;;;;;;23.16;58.09;98960.75;2619493;54;19958;-69
2022/08/20 08:46:37;;;;;;;;;;;;;;;23.22;57.33;98966.94;2619981;54;19947;-72
2022/08/20 08:49:06;;;;;;;;;;;;;;;23.13;56.77;98957.78;2620866;54;19938;-70
2022/08/20 08:51:38;;;;;;;;;;;;;;;23.07;57.44;98967.78;2620467;54;19938;-69
2022/08/20 08:54:15;;;;;;;;;;;;;;;23.16;57.71;98973.44;2620525;54;19943;-71
2022/08/20 08:56:44;;;;;;;;;;;;;;;23.37;56.70;98969.63;2619414;54;19966;-70
2022/08/20 08:59:19;;;;;;;;;;;;;;;23.26;56.59;98970.69;2619464;54;19939;-69
2022/08/20 09:01:50;;;;;;;;;;;;;;;23.32;56.79;98976.91;2620002;54;19966;-70
2022/08/20 09:04:25;;;;;;;;;;;;;;;23.38;56.39;98973.94;2620982;54;19945;-69
2022/08/20 09:06:54;;;;;;;;;;;;;;;23.33;56.07;98973.13;2621551;54;20525;-69
2022/08/20 09:09:29;;;;;;;;;;;;;;;23.23;55.64;98969.38;2619653;54;19951;-70
2022/08/20 09:12:04;;;;;;;;;;;;;;;23.23;56.03;98968.56;2619621;54;19953;-71
2022/08/20 09:14:33;;;;;;;;;;;;;;;23.14;55.48;98970.19;2619353;54;19946;-72
2022/08/20 09:17:02;;;;;;;;;;;;;;;23.14;54.83;98965.59;2619986;54;19945;-71
2022/08/20 09:19:32;;;;;;;;;;;;;;;23.07;55.06;98958.88;2620024;54;19946;-69
2022/08/20 09:22:08;;;;;;;;;;;;;;;22.95;54.84;98964.53;2620001;54;19946;-70
2022/08/20 09:24:40;;;;;;;;;;;;;;;23.00;54.70;98969.91;2619019;51;20430;-69
2022/08/20 09:27:09;;;;;;;;;;;;;;;23.24;54.00;98951.31;2618719;54;19970;-68
2022/08/20 09:29:39;;;;;;;;;;;;;;;23.60;53.87;98952.03;2617708;54;19953;-69
2022/08/20 09:32:09;;;;;;;;;;;;;;;23.91;51.69;98960.88;2618616;54;19954;-69
2022/08/20 09:34:39;;;;;;;;;;;;;;;23.91;51.16;98949.25;2618557;54;19946;-69
2022/08/20 09:37:08;;;;;;;;;;;;;;;23.83;51.47;98950.63;2618039;47;20441;-68
2022/08/20 09:39:40;;;;;;;;;;;;;;;23.78;50.60;98956.06;2618427;54;19939;-70
2022/08/20 09:42:11;;;;;;;;;;;;;;;23.64;50.52;98963.91;2618029;54;19959;-69
2022/08/20 09:44:40;;;;;;;;;;;;;;;23.45;51.00;98952.88;2618234;54;20470;-70
2022/08/20 09:47:10;;;;;;;;;;;;;;;23.35;51.43;98954.78;2617934;54;19965;-70
2022/08/20 09:49:40;;;;;;;;;;;;;;;23.39;51.47;98945.06;2618358;39;20350;-71
2022/08/20 09:52:10;;;;;;;;;;;;;;;23.51;51.41;98937.47;2617943;54;19951;-71
2022/08/20 09:54:42;;;;;;;;;;;;;;;23.51;51.27;98936.66;2617432;54;20446;-69
2022/08/20 09:57:15;;;;;;;;;;;;;;;23.67;51.40;98935.56;2618155;54;19978;-69
2022/08/20 09:59:47;;;;;;;;;;;;;;;23.63;51.19;98924.50;2617952;54;20058;-70
2022/08/20 10:02:16;;;;;;;;;;;;;;;23.63;50.86;98921.78;2618080;54;19946;-69
2022/08/20 10:04:46;;;;;;;;;;;;;;;23.72;50.78;98922.09;2618042;54;19953;-70
2022/08/20 10:07:16;;;;;;;;;;;;;;;23.89;50.20;98913.66;2617992;54;19946;-70
2022/08/20 10:09:48;;;;;;;;;;;;;;;23.94;49.78;98924.41;2618072;54;19954;-70
2022/08/20 10:12:17;;;;;;;;;;;;;;;24.00;49.17;98928.69;2618057;54;19951;-70
2022/08/20 10:14:46;;;;;;;;;;;;;;;24.00;48.73;98925.19;2618558;54;19943;-70
2022/08/20 10:17:16;;;;;;;;;;;;;;;24.00;48.69;98925.19;2617904;54;19954;-70
2022/08/20 10:19:45;;;;;;;;;;;;;;;23.99;48.65;98918.97;2618232;54;19945;-70
2022/08/20 10:22:14;;;;;;;;;;;;;;;24.07;48.36;98925.69;2618780;39;20334;-69
2022/08/20 10:24:44;;;;;;;;;;;;;;;24.00;48.52;98914.38;2619376;39;20335;-69
2022/08/20 10:27:16;;;;;;;;;;;;;;;23.94;48.35;98919.81;2617961;54;19946;-70
2022/08/20 10:29:45;;;;;;;;;;;;;;;23.98;48.07;98906.56;2618181;54;19938;-69
2022/08/20 10:32:16;;;;;;;;;;;;;;;24.12;47.78;98910.28;2617588;47;19945;-69
2022/08/20 10:34:49;;;;;;;;;;;;;;;24.31;47.17;98910.44;2618096;54;19946;-69
2022/08/20 10:37:19;;;;;;;;;;;;;;;24.45;47.02;98910.63;2617204;47;19947;-69
2022/08/20 10:39:48;;;;;;;;;;;;;;;24.42;45.67;98905.81;2617851;54;20026;-69
2022/08/20 10:42:20;;;;;;;;;;;;;;;24.37;45.35;98903.94;2617899;54;19954;-69
2022/08/20 10:44:50;;;;;;;;;;;;;;;24.42;44.98;98889.59;2618035;54;20449;-69
2022/08/20 10:47:21;;;;;;;;;;;;;;;24.54;44.10;98903.56;2617024;47;19946;-69
2022/08/20 10:49:52;;;;;;;;;;;;;;;24.64;44.59;98895.38;2618268;39;20334;-70
2022/08/20 10:52:21;;;;;;;;;;;;;;;24.76;43.90;98900.41;2617891;54;19939;-69
2022/08/20 10:54:51;;;;;;;;;;;;;;;24.83;42.68;98900.09;2617886;54;19946;-70
2022/08/20 10:57:25;;;;;;;;;;;;;;;24.99;42.26;98898.88;2617715;54;19945;-70
2022/08/20 10:59:56;;;;;;;;;;;;;;;25.10;38.86;98902.31;2617877;54;19973;-69
2022/08/20 11:02:26;;;;;;;;;;;;;;;25.02;37.92;98903.69;2617260;47;19973;-68
2022/08/20 11:04:56;;;;;;;;;;;;;;;25.15;36.88;98894.97;2617817;54;19945;-69
2022/08/20 11:07:28;;;;;;;;;;;;;;;25.30;36.52;98895.88;2617676;54;19966;-69
2022/08/20 11:10:17;;;;;;;;;;;;;;;25.32;34.19;98893.72;2617758;54;19970;-68
2022/08/20 11:12:49;;;;;;;;;;;;;;;25.36;34.24;98892.03;2617624;54;19947;-69
2022/08/20 11:15:18;;;;;;;;;;;;;;;25.44;34.45;98889.50;2618280;39;20330;-69
2022/08/20 11:17:48;;;;;;;;;;;;;;;25.53;33.81;98889.69;2616759;47;19947;-70
2022/08/20 11:20:18;;;;;;;;;;;;;;;25.50;33.17;98892.94;2617784;54;19947;-70
2022/08/20 11:22:48;;;;;;;;;;;;;;;25.50;32.62;98889.44;2617685;54;19969;-68
2022/08/20 11:25:18;;;;;;;;;;;;;;;25.56;32.61;98889.09;2617656;54;20493;-70
2022/08/20 11:27:50;;;;;;;;;;;;;;;25.61;32.34;98889.03;2617539;54;19943;-70
2022/08/20 11:30:22;;;;;;;;;;;;;;;25.67;31.64;98889.78;2618133;39;20330;-69
2022/08/20 11:32:51;;;;;;;;;;;;;;;25.63;31.70;98886.84;2617666;54;19954;-69
2022/08/20 11:35:22;;;;;;;;;;;;;;;25.71;31.71;98890.81;2617630;54;19939;-69
2022/08/20 11:38:11;;;;;;;;;;;;;;;25.78;31.69;98882.38;2617450;54;20078;-69
2022/08/20 11:40:41;;;;;;;;;;;;;;;25.94;31.00;98876.47;2617662;54;20438;-69
2022/08/20 11:43:13;;;;;;;;;;;;;;;25.94;31.02;98881.06;2617127;47;19954;-69
2022/08/20 11:45:45;;;;;;;;;;;;;;;26.01;29.73;98884.25;2617661;54;20419;-70
2022/08/20 11:48:15;;;;;;;;;;;;;;;26.01;30.81;98884.25;2617466;54;19946;-69
2022/08/20 11:50:45;;;;;;;;;;;;;;;26.05;30.31;98887.16;2617707;54;19946;-68
2022/08/20 11:53:14;;;;;;;;;;;;;;;26.01;29.82;98889.66;2617760;54;20533;-70
2022/08/20 11:55:44;;;;;;;;;;;;;;;26.00;29.55;98890.72;2617658;54;19938;-70
2022/08/20 11:58:16;;;;;;;;;;;;;;;26.01;27.72;98884.25;2617485;54;20521;-70
2022/08/20 12:00:45;;;;;;;;;;;;;;;26.09;28.76;98880.06;2617637;54;19946;-70
2022/08/20 12:03:15;;;;;;;;;;;;;;;26.16;27.60;98877.78;2617681;54;19954;-68
2022/08/20 12:05:46;;;;;;;;;;;;;;;26.14;28.10;98877.28;2617636;54;19957;-70
2022/08/20 12:08:16;;;;;;;;;;;;;;;26.28;27.50;98871.91;2617378;54;19946;-70
2022/08/20 12:10:56;;;;;;;;;;;;;;;26.48;27.65;98879.78;2617581;54;20422;-70
2022/08/20 12:13:32;;;;;;;;;;;;;;;26.50;26.20;98879.50;2617639;54;19953;-69
2022/08/20 12:16:17;;;;;;;;;;;;;;;26.66;26.32;98889.00;2617829;54;19986;-69
2022/08/20 12:18:46;;;;;;;;;;;;;;;26.67;25.05;98883.25;2617979;39;20327;-69
2022/08/20 12:21:16;;;;;;;;;;;;;;;26.76;25.35;98877.16;2617554;54;19947;-70
2022/08/20 12:23:45;;;;;;;;;;;;;;;26.84;24.71;98871.84;2618765;39;20382;-70
2022/08/20 12:26:15;;;;;;;;;;;;;;;26.92;24.36;98864.94;2618346;54;20442;-69
2022/08/20 12:28:47;;;;;;;;;;;;;;;26.96;24.09;98862.44;2618573;54;19945;-70
2022/08/20 12:31:16;;;;;;;;;;;;;;;27.02;24.72;98866.66;2617890;54;19946;-70
2022/08/20 12:33:46;;;;;;;;;;;;;;;27.08;24.32;98865.47;2618316;54;19947;-70
2022/08/20 12:36:15;;;;;;;;;;;;;;;27.07;24.02;98855.75;2618309;54;19945;-71
2022/08/20 12:38:45;;;;;;;;;;;;;;;27.17;23.97;98872.66;2617991;47;19943;-69
2022/08/20 12:41:14;;;;;;;;;;;;;;;27.21;24.11;98862.00;2617850;54;19946;-69
2022/08/20 12:43:43;;;;;;;;;;;;;;;27.30;25.16;98856.66;2618376;54;19938;-69
2022/08/20 12:46:15;;;;;;;;;;;;;;;27.36;24.88;98859.00;2618151;54;19939;-69
2022/08/20 12:48:45;;;;;;;;;;;;;;;27.43;24.63;98858.56;2618218;54;19978;-70
2022/08/20 12:51:14;;;;;;;;;;;;;;;27.48;24.55;98861.22;2618302;54;19950;-70
2022/08/20 12:53:44;;;;;;;;;;;;;;;27.52;24.93;98856.78;2618274;54;19939;-71
2022/08/20 12:56:13;;;;;;;;;;;;;;;27.65;25.31;98855.16;2618201;54;19938;-71
2022/08/20 12:58:42;;;;;;;;;;;;;;;27.58;25.18;98861.00;2618425;54;19947;-71
2022/08/20 13:01:12;;;;;;;;;;;;;;;27.55;25.85;98853.44;2618467;54;20427;-71
2022/08/20 13:03:44;;;;;;;;;;;;;;;27.66;25.82;98857.56;2618263;54;20034;-71
2022/08/20 13:06:13;;;;;;;;;;;;;;;27.78;25.99;98851.66;2618217;54;19950;-71
2022/08/20 13:08:43;;;;;;;;;;;;;;;27.84;25.73;98857.75;2617771;54;19947;-71
2022/08/20 13:11:15;;;;;;;;;;;;;;;27.85;25.61;98857.47;2618363;54;19938;-71
2022/08/20 13:13:46;;;;;;;;;;;;;;;27.90;25.85;98851.13;2618630;54;19945;-70
2022/08/20 13:16:15;;;;;;;;;;;;;;;27.90;25.38;98838.34;2618200;54;19946;-71
2022/08/20 13:18:47;;;;;;;;;;;;;;;28.01;25.51;98835.41;2619929;54;19977;-70
2022/08/20 13:21:17;;;;;;;;;;;;;;;27.97;24.86;98842.56;2619610;54;19955;-70
2022/08/20 13:23:52;;;;;;;;;;;;;;;28.00;25.06;98840.00;2618157;54;20022;-71
2022/08/20 13:26:21;;;;;;;;;;;;;;;28.09;24.71;98838.19;2618320;54;20458;-71
2022/08/20 13:28:50;;;;;;;;;;;;;;;27.92;25.09;98839.94;2617623;54;20030;-70
2022/08/20 13:31:20;;;;;;;;;;;;;;;28.01;24.22;98835.41;2618136;54;19970;-70
2022/08/20 13:33:52;;;;;;;;;;;;;;;28.10;24.08;98826.22;2617851;54;19947;-71
2022/08/20 13:36:22;;;;;;;;;;;;;;;28.11;23.46;98835.97;2618371;46;20410;-71
2022/08/20 13:38:51;;;;;;;;;;;;;;;28.11;23.67;98833.25;2618497;54;19939;-71
2022/08/20 13:41:20;;;;;;;;;;;;;;;28.09;23.16;98819.16;2618044;39;20322;-71
2022/08/20 13:43:50;;;;;;;;;;;;;;;28.03;22.79;98822.31;2617622;47;19953;-70
2022/08/20 13:46:19;;;;;;;;;;;;;;;28.19;23.38;98830.91;2617988;54;19946;-70
2022/08/20 13:48:49;;;;;;;;;;;;;;;28.34;23.33;98816.97;2618396;54;19946;-72
2022/08/20 13:51:21;;;;;;;;;;;;;;;28.36;22.62;98815.56;2618062;54;19947;-71
2022/08/20 13:53:55;;;;;;;;;;;;;;;28.46;23.30;98817.22;2618370;54;19943;-71
2022/08/20 13:56:24;;;;;;;;;;;;;;;28.56;22.80;98814.25;2618023;54;19947;-71
2022/08/20 13:58:54;;;;;;;;;;;;;;;28.55;22.71;98809.94;2618297;54;19946;-71
2022/08/20 14:01:23;;;;;;;;;;;;;;;28.52;23.42;98805.09;2618142;54;19938;-71
2022/08/20 14:03:52;;;;;;;;;;;;;;;28.54;23.35;98815.69;2618079;54;19950;-71
2022/08/20 14:06:24;;;;;;;;;;;;;;;28.41;23.35;98806.47;2617425;47;19946;-71
2022/08/20 14:08:54;;;;;;;;;;;;;;;28.57;23.59;98810.41;2618337;54;19939;-71
2022/08/20 14:11:23;;;;;;;;;;;;;;;28.64;23.43;98816.22;2618337;54;19938;-71
2022/08/20 14:13:52;;;;;;;;;;;;;;;28.63;21.80;98809.19;2617653;54;19962;-71
2022/08/20 14:16:22;;;;;;;;;;;;;;;28.59;22.59;98804.66;2618055;54;19946;-71
2022/08/20 14:18:56;;;;;;;;;;;;;;;28.68;22.57;98805.50;2618089;54;19961;-71
2022/08/20 14:21:28;;;;;;;;;;;;;;;28.68;21.74;98799.28;2618044;54;19945;-71
2022/08/20 14:23:58;;;;;;;;;;;;;;;28.69;21.50;98812.56;2618314;54;19939;-71
2022/08/20 14:26:27;;;;;;;;;;;;;;;28.75;21.85;98824.13;2618049;54;20438;-71
2022/08/20 14:28:56;;;;;;;;;;;;;;;28.73;22.38;98820.91;2618030;54;19945;-71
2022/08/20 14:31:26;;;;;;;;;;;;;;;28.84;22.79;98814.88;2618812;54;19939;-72
2022/08/20 14:33:55;;;;;;;;;;;;;;;28.87;22.10;98811.53;2618413;54;19954;-71
2022/08/20 14:36:24;;;;;;;;;;;;;;;28.83;22.70;98817.94;2617751;39;20369;-71
2022/08/20 14:38:56;;;;;;;;;;;;;;;28.73;22.74;98813.53;2618058;54;19947;-72
2022/08/20 14:41:26;;;;;;;;;;;;;;;28.75;23.53;98814.03;2617996;54;19950;-72
2022/08/20 14:43:57;;;;;;;;;;;;;;;28.85;23.97;98811.03;2618962;31;20442;-72
2022/08/20 14:46:26;;;;;;;;;;;;;;;28.80;24.20;98819.34;2618100;54;19954;-71
2022/08/20 14:48:57;;;;;;;;;;;;;;;28.93;24.28;98805.97;2618067;54;19939;-72
2022/08/20 14:51:27;;;;;;;;;;;;;;;29.06;24.31;98813.25;2618452;39;20429;-71
2022/08/20 14:53:58;;;;;;;;;;;;;;;28.85;24.32;98808.31;2618267;54;19946;-72
2022/08/20 14:56:28;;;;;;;;;;;;;;;28.89;23.94;98806.56;2617853;54;19946;-72
2022/08/20 14:58:57;;;;;;;;;;;;;;;28.77;23.72;98813.72;2617979;54;19946;-72
2022/08/20 15:01:27;;;;;;;;;;;;;;;28.78;23.45;98801.72;2618640;54;20477;-72
2022/08/20 15:03:56;;;;;;;;;;;;;;;28.78;23.29;98810.72;2617973;54;19951;-69
2022/08/20 15:06:25;;;;;;;;;;;;;;;28.78;23.76;98815.31;2617232;54;20529;-69
2022/08/20 15:08:58;;;;;;;;;;;;;;;28.84;24.27;98814.09;2617607;47;19939;-70
2022/08/20 15:11:28;;;;;;;;;;;;;;;28.94;24.34;98813.00;2618331;54;19939;-69
2022/08/20 15:14:02;;;;;;;;;;;;;;;29.00;24.80;98809.88;2618333;54;19955;-69
2022/08/20 15:16:32;;;;;;;;;;;;;;;28.68;25.54;98816.41;2618104;54;19946;-70
2022/08/20 15:19:01;;;;;;;;;;;;;;;28.72;25.85;98814.66;2617187;47;19953;-69
2022/08/20 15:21:30;;;;;;;;;;;;;;;28.96;25.56;98808.84;2617810;54;19958;-69
2022/08/20 15:24:15;;;;;;;;;;;;;;;29.15;25.32;98803.22;2617933;54;19947;-69
2022/08/20 15:26:47;;;;;;;;;;;;;;;29.31;25.57;98804.38;2618875;39;20354;-69
2022/08/20 15:29:17;;;;;;;;;;;;;;;29.37;25.09;98802.31;2618448;54;19946;-69
2022/08/20 15:31:51;;;;;;;;;;;;;;;29.33;25.50;98795.88;2618881;54;19946;-69
2022/08/20 15:34:21;;;;;;;;;;;;;;;29.38;25.45;98807.41;2618451;54;20438;-70
2022/08/20 15:36:50;;;;;;;;;;;;;;;29.47;24.99;98796.53;2618116;54;20158;-69
2022/08/20 15:39:22;;;;;;;;;;;;;;;29.34;25.78;98794.75;2618896;47;19947;-69
2022/08/20 15:41:51;;;;;;;;;;;;;;;29.01;25.74;98797.06;2617363;54;19954;-69
2022/08/20 15:44:21;;;;;;;;;;;;;;;28.74;25.27;98800.72;2617905;54;19956;-69
2022/08/20 15:46:50;;;;;;;;;;;;;;;28.91;25.32;98800.03;2618001;54;20623;-69
2022/08/20 15:49:19;;;;;;;;;;;;;;;29.10;25.05;98797.88;2618303;54;19950;-69
2022/08/20 15:51:50;;;;;;;;;;;;;;;29.27;25.06;98795.25;2617874;54;19939;-70
2022/08/20 15:54:24;;;;;;;;;;;;;;;29.26;25.26;98790.91;2617784;54;19947;-70
2022/08/20 15:56:59;;;;;;;;;;;;;;;28.97;25.20;98793.38;2617657;54;19954;-68
2022/08/20 15:59:40;;;;;;;;;;;;;;;28.88;25.53;98799.53;2618450;54;20453;-69
2022/08/20 16:02:22;;;;;;;;;;;;;;;29.13;25.14;98797.25;2618736;54;19957;-68
2022/08/20 16:05:00;;;;;;;;;;;;;;;29.02;25.18;98795.94;2618859;54;20466;-69
2022/08/20 16:07:35;;;;;;;;;;;;;;;28.67;25.59;98803.91;2618282;54;20434;-69
2022/08/20 16:10:13;;;;;;;;;;;;;;;28.93;25.92;98789.63;2618339;54;19953;-69
2022/08/20 16:12:45;;;;;;;;;;;;;;;29.12;25.67;98795.66;2618148;54;19945;-69
